sensor_id;sensor_type;location;lat;lon;timestamp;P1;durP1;ratioP1;P2;durP2;ratioP2
2494;SDS011;1258;48.336;14.322;2024-01-30T00:01:03;5.83;;;5.33;;
2494;SDS011;1258;48.336;14.322;2024-01-30T00:03:30;5.07;;;4.67;;
2494;SDS011;1258;48.336;14.322;2024-01-30T00:05:57;5.97;;;5.37;;
2494;SDS011;1258;48.336;14.322;2024-01-30T00:08:24;5.47;;;4.97;;
2494;SDS011;1258;48.336;14.322;2024-01-30T00:10:52;5.87;;;5.27;;
2494;SDS011;1258;48.336;14.322;2024-01-30T00:13:19;5.07;;;4.67;;
2494;SDS011;1258;48.336;14.322;2024-01-30T00:15:46;5.60;;;5.10;;
2494;SDS011;1258;48.336;14.322;2024-01-30T00:18:13;5.00;;;4.60;;
2494;SDS011;1258;48.336;14.322;2024-01-30T00:20:40;6.90;;;6.30;;
2494;SDS011;1258;48.336;14.322;2024-01-30T00:23:07;5.17;;;4.70;;
2494;SDS011;1258;48.336;14.322;2024-01-30T00:25:34;5.70;;;5.20;;
2494;SDS011;1258;48.336;14.322;2024-01-30T00:28:03;5.70;;;5.20;;
2494;SDS011;1258;48.336;14.322;2024-01-30T00:30:30;5.13;;;4.73;;
2494;SDS011;1258;48.336;14.322;2024-01-30T00:32:57;5.20;;;4.80;;
2494;SDS011;1258;48.336;14.322;2024-01-30T00:35:23;5.83;;;5.33;;
2494;SDS011;1258;48.336;14.322;2024-01-30T00:37:51;5.20;;;4.80;;
2494;SDS011;1258;48.336;14.322;2024-01-30T00:40:18;5.70;;;5.23;;
2494;SDS011;1258;48.336;14.322;2024-01-30T00:42:45;6.23;;;5.63;;
2494;SDS011;1258;48.336;14.322;2024-01-30T00:45:14;5.67;;;5.17;;
2494;SDS011;1258;48.336;14.322;2024-01-30T00:47:41;5.80;;;5.30;;
2494;SDS011;1258;48.336;14.322;2024-01-30T00:50:09;5.80;;;5.30;;
2494;SDS011;1258;48.336;14.322;2024-01-30T00:52:36;6.40;;;5.80;;
2494;SDS011;1258;48.336;14.322;2024-01-30T00:55:04;6.57;;;6.07;;
2494;SDS011;1258;48.336;14.322;2024-01-30T00:57:31;7.17;;;6.57;;
2494;SDS011;1258;48.336;14.322;2024-01-30T00:59:58;7.77;;;7.03;;
2494;SDS011;1258;48.336;14.322;2024-01-30T01:02:27;6.97;;;6.37;;
2494;SDS011;1258;48.336;14.322;2024-01-30T01:04:54;5.93;;;5.43;;
2494;SDS011;1258;48.336;14.322;2024-01-30T01:07:20;5.70;;;5.20;;
2494;SDS011;1258;48.336;14.322;2024-01-30T01:09:47;5.40;;;5.00;;
2494;SDS011;1258;48.336;14.322;2024-01-30T01:12:14;5.80;;;5.30;;
2494;SDS011;1258;48.336;14.322;2024-01-30T01:14:41;5.73;;;5.23;;
2494;SDS011;1258;48.336;14.322;2024-01-30T01:17:08;5.53;;;5.03;;
2494;SDS011;1258;48.336;14.322;2024-01-30T01:19:36;5.70;;;5.20;;
2494;SDS011;1258;48.336;14.322;2024-01-30T01:22:03;5.60;;;5.10;;
2494;SDS011;1258;48.336;14.322;2024-01-30T01:24:30;5.60;;;5.20;;
2494;SDS011;1258;48.336;14.322;2024-01-30T01:26:57;5.77;;;4.93;;
2494;SDS011;1258;48.336;14.322;2024-01-30T01:29:24;5.23;;;4.83;;
2494;SDS011;1258;48.336;14.322;2024-01-30T01:31:53;5.10;;;4.70;;
2494;SDS011;1258;48.336;14.322;2024-01-30T01:34:21;5.00;;;4.60;;
2494;SDS011;1258;48.336;14.322;2024-01-30T01:36:50;5.60;;;5.10;;
2494;SDS011;1258;48.336;14.322;2024-01-30T01:39:20;5.23;;;4.73;;
2494;SDS011;1258;48.336;14.322;2024-01-30T01:41:48;4.83;;;4.43;;
2494;SDS011;1258;48.336;14.322;2024-01-30T01:44:15;5.03;;;4.63;;
2494;SDS011;1258;48.336;14.322;2024-01-30T01:46:41;4.63;;;4.23;;
2494;SDS011;1258;48.336;14.322;2024-01-30T01:49:09;4.80;;;4.40;;
2494;SDS011;1258;48.336;14.322;2024-01-30T01:51:36;5.57;;;5.07;;
2494;SDS011;1258;48.336;14.322;2024-01-30T01:54:07;5.10;;;4.70;;
2494;SDS011;1258;48.336;14.322;2024-01-30T01:56:35;5.10;;;4.70;;
2494;SDS011;1258;48.336;14.322;2024-01-30T01:59:04;4.73;;;4.20;;
2494;SDS011;1258;48.336;14.322;2024-01-30T02:01:32;4.63;;;4.23;;
2494;SDS011;1258;48.336;14.322;2024-01-30T02:03:58;4.60;;;4.20;;
2494;SDS011;1258;48.336;14.322;2024-01-30T02:06:26;4.50;;;4.20;;
2494;SDS011;1258;48.336;14.322;2024-01-30T02:08:53;4.50;;;4.20;;
2494;SDS011;1258;48.336;14.322;2024-01-30T02:11:21;4.83;;;4.43;;
2494;SDS011;1258;48.336;14.322;2024-01-30T02:13:49;4.80;;;4.40;;
2494;SDS011;1258;48.336;14.322;2024-01-30T02:16:16;4.60;;;4.30;;
2494;SDS011;1258;48.336;14.322;2024-01-30T02:18:43;4.97;;;4.57;;
2494;SDS011;1258;48.336;14.322;2024-01-30T02:21:14;4.90;;;4.50;;
2494;SDS011;1258;48.336;14.322;2024-01-30T02:23:43;4.67;;;4.27;;
2494;SDS011;1258;48.336;14.322;2024-01-30T02:26:10;5.13;;;4.73;;
2494;SDS011;1258;48.336;14.322;2024-01-30T02:28:37;6.20;;;5.40;;
2494;SDS011;1258;48.336;14.322;2024-01-30T02:31:04;5.17;;;4.73;;
2494;SDS011;1258;48.336;14.322;2024-01-30T02:33:31;4.93;;;4.53;;
2494;SDS011;1258;48.336;14.322;2024-01-30T02:35:58;4.90;;;4.50;;
2494;SDS011;1258;48.336;14.322;2024-01-30T02:38:27;5.30;;;4.90;;
2494;SDS011;1258;48.336;14.322;2024-01-30T02:40:54;5.30;;;4.80;;
2494;SDS011;1258;48.336;14.322;2024-01-30T02:43:22;5.73;;;4.97;;
2494;SDS011;1258;48.336;14.322;2024-01-30T02:45:49;4.93;;;4.53;;
2494;SDS011;1258;48.336;14.322;2024-01-30T02:48:15;5.33;;;4.93;;
2494;SDS011;1258;48.336;14.322;2024-01-30T02:50:42;5.60;;;5.10;;
2494;SDS011;1258;48.336;14.322;2024-01-30T02:53:11;5.40;;;4.90;;
2494;SDS011;1258;48.336;14.322;2024-01-30T02:55:39;5.17;;;4.73;;
2494;SDS011;1258;48.336;14.322;2024-01-30T02:58:06;5.30;;;4.80;;
2494;SDS011;1258;48.336;14.322;2024-01-30T03:00:33;5.43;;;5.03;;
2494;SDS011;1258;48.336;14.322;2024-01-30T03:03:00;5.20;;;4.80;;
2494;SDS011;1258;48.336;14.322;2024-01-30T03:05:27;5.67;;;5.17;;
2494;SDS011;1258;48.336;14.322;2024-01-30T03:07:53;5.23;;;4.73;;
2494;SDS011;1258;48.336;14.322;2024-01-30T03:10:20;5.70;;;5.20;;
2494;SDS011;1258;48.336;14.322;2024-01-30T03:12:49;5.00;;;4.57;;
2494;SDS011;1258;48.336;14.322;2024-01-30T03:15:15;5.43;;;4.93;;
2494;SDS011;1258;48.336;14.322;2024-01-30T03:17:42;7.20;;;6.60;;
2494;SDS011;1258;48.336;14.322;2024-01-30T03:20:10;7.20;;;6.60;;
2494;SDS011;1258;48.336;14.322;2024-01-30T03:22:37;7.00;;;6.40;;
2494;SDS011;1258;48.336;14.322;2024-01-30T03:25:04;6.53;;;6.03;;
2494;SDS011;1258;48.336;14.322;2024-01-30T03:27:31;6.50;;;6.00;;
2494;SDS011;1258;48.336;14.322;2024-01-30T03:30:00;6.17;;;5.67;;
2494;SDS011;1258;48.336;14.322;2024-01-30T03:32:27;6.90;;;6.20;;
2494;SDS011;1258;48.336;14.322;2024-01-30T03:51:46;10.73;;;9.83;;
2494;SDS011;1258;48.336;14.322;2024-01-30T03:54:13;10.93;;;9.93;;
2494;SDS011;1258;48.336;14.322;2024-01-30T03:56:40;10.63;;;9.70;;
2494;SDS011;1258;48.336;14.322;2024-01-30T03:59:07;12.17;;;11.07;;
2494;SDS011;1258;48.336;14.322;2024-01-30T04:01:34;11.10;;;10.20;;
2494;SDS011;1258;48.336;14.322;2024-01-30T04:04:01;11.00;;;10.00;;
2494;SDS011;1258;48.336;14.322;2024-01-30T04:06:28;11.17;;;10.27;;
2494;SDS011;1258;48.336;14.322;2024-01-30T04:08:56;10.10;;;9.20;;
2494;SDS011;1258;48.336;14.322;2024-01-30T04:11:23;10.40;;;9.37;;
2494;SDS011;1258;48.336;14.322;2024-01-30T04:13:50;9.40;;;8.60;;
2494;SDS011;1258;48.336;14.322;2024-01-30T04:16:20;10.07;;;9.07;;
2494;SDS011;1258;48.336;14.322;2024-01-30T04:18:47;9.13;;;8.23;;
2494;SDS011;1258;48.336;14.322;2024-01-30T04:21:14;7.00;;;6.40;;
2494;SDS011;1258;48.336;14.322;2024-01-30T04:23:41;9.20;;;8.40;;
2494;SDS011;1258;48.336;14.322;2024-01-30T04:26:09;9.83;;;8.90;;
2494;SDS011;1258;48.336;14.322;2024-01-30T04:28:36;9.13;;;8.33;;
2494;SDS011;1258;48.336;14.322;2024-01-30T04:31:03;8.67;;;7.87;;
2494;SDS011;1258;48.336;14.322;2024-01-30T04:33:30;11.83;;;10.73;;
2494;SDS011;1258;48.336;14.322;2024-01-30T04:35:57;10.03;;;9.03;;
2494;SDS011;1258;48.336;14.322;2024-01-30T04:38:24;12.50;;;11.23;;
2494;SDS011;1258;48.336;14.322;2024-01-30T04:40:51;11.83;;;10.83;;
2494;SDS011;1258;48.336;14.322;2024-01-30T04:43:19;9.93;;;9.00;;
2494;SDS011;1258;48.336;14.322;2024-01-30T04:45:46;10.10;;;9.10;;
2494;SDS011;1258;48.336;14.322;2024-01-30T04:48:13;9.00;;;8.20;;
2494;SDS011;1258;48.336;14.322;2024-01-30T04:50:40;9.10;;;8.30;;
2494;SDS011;1258;48.336;14.322;2024-01-30T04:53:07;9.00;;;8.20;;
2494;SDS011;1258;48.336;14.322;2024-01-30T04:55:34;7.97;;;7.27;;
2494;SDS011;1258;48.336;14.322;2024-01-30T04:58:02;9.33;;;8.53;;
2494;SDS011;1258;48.336;14.322;2024-01-30T05:00:30;7.90;;;7.20;;
2494;SDS011;1258;48.336;14.322;2024-01-30T05:02:57;7.53;;;6.83;;
2494;SDS011;1258;48.336;14.322;2024-01-30T05:05:24;7.00;;;6.40;;
2494;SDS011;1258;48.336;14.322;2024-01-30T05:07:50;7.00;;;6.40;;
2494;SDS011;1258;48.336;14.322;2024-01-30T05:10:17;6.70;;;6.10;;
2494;SDS011;1258;48.336;14.322;2024-01-30T05:12:44;6.00;;;5.50;;
2494;SDS011;1258;48.336;14.322;2024-01-30T05:15:11;6.30;;;5.80;;
2494;SDS011;1258;48.336;14.322;2024-01-30T05:17:39;6.00;;;5.40;;
2494;SDS011;1258;48.336;14.322;2024-01-30T05:20:07;5.53;;;5.13;;
2494;SDS011;1258;48.336;14.322;2024-01-30T05:22:35;5.60;;;5.13;;
2494;SDS011;1258;48.336;14.322;2024-01-30T05:25:03;6.87;;;6.27;;
2494;SDS011;1258;48.336;14.322;2024-01-30T05:27:30;6.37;;;5.87;;
2494;SDS011;1258;48.336;14.322;2024-01-30T05:29:57;6.10;;;5.50;;
2494;SDS011;1258;48.336;14.322;2024-01-30T05:32:24;6.67;;;6.07;;
2494;SDS011;1258;48.336;14.322;2024-01-30T05:34:52;5.80;;;5.30;;
2494;SDS011;1258;48.336;14.322;2024-01-30T05:37:19;5.70;;;5.20;;
2494;SDS011;1258;48.336;14.322;2024-01-30T05:39:46;6.03;;;5.53;;
2494;SDS011;1258;48.336;14.322;2024-01-30T05:42:13;5.93;;;5.43;;
2494;SDS011;1258;48.336;14.322;2024-01-30T05:44:41;6.00;;;5.50;;
2494;SDS011;1258;48.336;14.322;2024-01-30T05:47:08;5.40;;;5.00;;
2494;SDS011;1258;48.336;14.322;2024-01-30T05:49:35;6.57;;;5.97;;
2494;SDS011;1258;48.336;14.322;2024-01-30T05:52:05;6.50;;;6.00;;
2494;SDS011;1258;48.336;14.322;2024-01-30T05:54:32;5.97;;;5.47;;
2494;SDS011;1258;48.336;14.322;2024-01-30T05:56:59;5.80;;;5.40;;
2494;SDS011;1258;48.336;14.322;2024-01-30T05:59:26;6.27;;;5.67;;
2494;SDS011;1258;48.336;14.322;2024-01-30T06:01:53;6.13;;;5.63;;
2494;SDS011;1258;48.336;14.322;2024-01-30T06:04:20;5.90;;;5.30;;
2494;SDS011;1258;48.336;14.322;2024-01-30T06:06:47;5.90;;;5.40;;
2494;SDS011;1258;48.336;14.322;2024-01-30T06:09:15;5.73;;;5.23;;
2494;SDS011;1258;48.336;14.322;2024-01-30T06:11:42;6.50;;;5.93;;
2494;SDS011;1258;48.336;14.322;2024-01-30T06:14:09;6.30;;;5.80;;
2494;SDS011;1258;48.336;14.322;2024-01-30T06:16:35;5.30;;;4.90;;
2494;SDS011;1258;48.336;14.322;2024-01-30T06:19:02;5.30;;;4.90;;
2494;SDS011;1258;48.336;14.322;2024-01-30T06:21:29;6.17;;;5.50;;
2494;SDS011;1258;48.336;14.322;2024-01-30T06:23:57;6.30;;;5.70;;
2494;SDS011;1258;48.336;14.322;2024-01-30T06:26:25;6.17;;;5.60;;
2494;SDS011;1258;48.336;14.322;2024-01-30T06:28:52;6.10;;;5.60;;
2494;SDS011;1258;48.336;14.322;2024-01-30T06:31:19;5.70;;;5.20;;
2494;SDS011;1258;48.336;14.322;2024-01-30T06:33:46;5.50;;;5.03;;
2494;SDS011;1258;48.336;14.322;2024-01-30T06:36:13;6.90;;;6.30;;
2494;SDS011;1258;48.336;14.322;2024-01-30T06:38:40;5.53;;;5.03;;
2494;SDS011;1258;48.336;14.322;2024-01-30T06:41:07;6.10;;;5.30;;
2494;SDS011;1258;48.336;14.322;2024-01-30T06:43:35;5.40;;;5.00;;
2494;SDS011;1258;48.336;14.322;2024-01-30T06:46:02;5.73;;;5.20;;
2494;SDS011;1258;48.336;14.322;2024-01-30T06:48:29;6.00;;;5.50;;
2494;SDS011;1258;48.336;14.322;2024-01-30T06:50:57;6.20;;;5.70;;
2494;SDS011;1258;48.336;14.322;2024-01-30T06:53:24;5.93;;;5.43;;
2494;SDS011;1258;48.336;14.322;2024-01-30T06:55:51;6.07;;;5.57;;
2494;SDS011;1258;48.336;14.322;2024-01-30T06:58:18;6.47;;;5.97;;
2494;SDS011;1258;48.336;14.322;2024-01-30T07:00:46;6.40;;;5.90;;
2494;SDS011;1258;48.336;14.322;2024-01-30T07:03:13;6.17;;;5.57;;
2494;SDS011;1258;48.336;14.322;2024-01-30T07:05:40;6.47;;;5.97;;
2494;SDS011;1258;48.336;14.322;2024-01-30T07:08:07;6.43;;;5.90;;
2494;SDS011;1258;48.336;14.322;2024-01-30T07:10:35;6.90;;;6.30;;
2494;SDS011;1258;48.336;14.322;2024-01-30T07:13:02;6.40;;;5.80;;
2494;SDS011;1258;48.336;14.322;2024-01-30T07:15:30;5.90;;;5.40;;
2494;SDS011;1258;48.336;14.322;2024-01-30T07:17:58;6.90;;;6.30;;
2494;SDS011;1258;48.336;14.322;2024-01-30T07:20:25;6.57;;;6.00;;
2494;SDS011;1258;48.336;14.322;2024-01-30T07:22:52;6.40;;;5.90;;
2494;SDS011;1258;48.336;14.322;2024-01-30T07:25:19;5.83;;;5.33;;
2494;SDS011;1258;48.336;14.322;2024-01-30T07:27:46;5.37;;;4.97;;
2494;SDS011;1258;48.336;14.322;2024-01-30T07:30:13;6.70;;;6.10;;
2494;SDS011;1258;48.336;14.322;2024-01-30T07:32:41;6.30;;;5.80;;
2494;SDS011;1258;48.336;14.322;2024-01-30T07:35:09;7.03;;;6.43;;
2494;SDS011;1258;48.336;14.322;2024-01-30T07:37:36;6.97;;;6.13;;
2494;SDS011;1258;48.336;14.322;2024-01-30T07:40:04;6.57;;;6.07;;
2494;SDS011;1258;48.336;14.322;2024-01-30T07:42:31;7.70;;;7.10;;
2494;SDS011;1258;48.336;14.322;2024-01-30T07:44:58;6.73;;;6.23;;
2494;SDS011;1258;48.336;14.322;2024-01-30T07:47:26;6.33;;;5.83;;
2494;SDS011;1258;48.336;14.322;2024-01-30T07:49:53;6.97;;;6.03;;
2494;SDS011;1258;48.336;14.322;2024-01-30T07:52:21;7.80;;;7.03;;
2494;SDS011;1258;48.336;14.322;2024-01-30T07:54:48;6.73;;;6.20;;
2494;SDS011;1258;48.336;14.322;2024-01-30T07:57:15;6.37;;;5.80;;
2494;SDS011;1258;48.336;14.322;2024-01-30T07:59:42;5.43;;;4.97;;
2494;SDS011;1258;48.336;14.322;2024-01-30T08:02:10;8.27;;;7.57;;
2494;SDS011;1258;48.336;14.322;2024-01-30T08:04:38;8.90;;;8.10;;
2494;SDS011;1258;48.336;14.322;2024-01-30T08:07:05;8.10;;;7.33;;
2494;SDS011;1258;48.336;14.322;2024-01-30T08:09:33;8.20;;;7.50;;
2494;SDS011;1258;48.336;14.322;2024-01-30T08:12:00;10.73;;;9.63;;
2494;SDS011;1258;48.336;14.322;2024-01-30T08:14:27;9.83;;;8.93;;
2494;SDS011;1258;48.336;14.322;2024-01-30T08:16:54;9.40;;;8.50;;
2494;SDS011;1258;48.336;14.322;2024-01-30T08:19:21;8.97;;;8.27;;
2494;SDS011;1258;48.336;14.322;2024-01-30T08:21:48;8.57;;;7.87;;
2494;SDS011;1258;48.336;14.322;2024-01-30T08:24:15;8.80;;;8.00;;
2494;SDS011;1258;48.336;14.322;2024-01-30T08:26:43;6.63;;;6.03;;
2494;SDS011;1258;48.336;14.322;2024-01-30T08:29:10;6.97;;;6.37;;
2494;SDS011;1258;48.336;14.322;2024-01-30T08:31:37;7.30;;;6.60;;
2494;SDS011;1258;48.336;14.322;2024-01-30T08:34:04;7.60;;;6.90;;
2494;SDS011;1258;48.336;14.322;2024-01-30T08:36:30;6.40;;;5.90;;
2494;SDS011;1258;48.336;14.322;2024-01-30T08:38:57;7.07;;;6.47;;
2494;SDS011;1258;48.336;14.322;2024-01-30T08:41:24;6.70;;;6.10;;
2494;SDS011;1258;48.336;14.322;2024-01-30T08:43:53;7.10;;;6.50;;
2494;SDS011;1258;48.336;14.322;2024-01-30T08:46:19;7.10;;;6.50;;
2494;SDS011;1258;48.336;14.322;2024-01-30T08:48:46;7.20;;;6.60;;
2494;SDS011;1258;48.336;14.322;2024-01-30T08:51:13;7.60;;;7.00;;
2494;SDS011;1258;48.336;14.322;2024-01-30T08:53:40;7.70;;;7.00;;
2494;SDS011;1258;48.336;14.322;2024-01-30T08:56:08;7.17;;;6.57;;
2494;SDS011;1258;48.336;14.322;2024-01-30T08:58:35;7.10;;;6.50;;
2494;SDS011;1258;48.336;14.322;2024-01-30T09:01:03;6.57;;;6.00;;
2494;SDS011;1258;48.336;14.322;2024-01-30T09:03:30;7.67;;;7.00;;
2494;SDS011;1258;48.336;14.322;2024-01-30T09:05:57;7.60;;;7.00;;
2494;SDS011;1258;48.336;14.322;2024-01-30T09:08:24;7.33;;;6.63;;
2494;SDS011;1258;48.336;14.322;2024-01-30T09:10:51;8.60;;;7.80;;
2494;SDS011;1258;48.336;14.322;2024-01-30T09:13:18;6.60;;;6.00;;
2494;SDS011;1258;48.336;14.322;2024-01-30T09:15:45;6.50;;;5.90;;
2494;SDS011;1258;48.336;14.322;2024-01-30T09:18:13;6.77;;;6.17;;
2494;SDS011;1258;48.336;14.322;2024-01-30T09:20:40;6.80;;;6.20;;
2494;SDS011;1258;48.336;14.322;2024-01-30T09:23:07;7.20;;;6.60;;
2494;SDS011;1258;48.336;14.322;2024-01-30T09:25:34;9.17;;;8.37;;
2494;SDS011;1258;48.336;14.322;2024-01-30T09:28:01;9.67;;;8.37;;
2494;SDS011;1258;48.336;14.322;2024-01-30T09:30:27;11.73;;;10.63;;
2494;SDS011;1258;48.336;14.322;2024-01-30T09:32:54;8.53;;;7.73;;
2494;SDS011;1258;48.336;14.322;2024-01-30T09:35:23;10.07;;;9.10;;
2494;SDS011;1258;48.336;14.322;2024-01-30T09:37:49;9.07;;;8.27;;
2494;SDS011;1258;48.336;14.322;2024-01-30T09:40:17;10.30;;;9.40;;
2494;SDS011;1258;48.336;14.322;2024-01-30T09:42:46;9.43;;;8.60;;
2494;SDS011;1258;48.336;14.322;2024-01-30T09:45:15;8.60;;;7.83;;
2494;SDS011;1258;48.336;14.322;2024-01-30T09:47:43;10.63;;;9.63;;
2494;SDS011;1258;48.336;14.322;2024-01-30T09:50:11;13.80;;;11.30;;
2494;SDS011;1258;48.336;14.322;2024-01-30T09:52:40;11.60;;;10.60;;
2494;SDS011;1258;48.336;14.322;2024-01-30T09:55:08;12.37;;;10.00;;
2494;SDS011;1258;48.336;14.322;2024-01-30T09:57:35;12.93;;;11.70;;
2494;SDS011;1258;48.336;14.322;2024-01-30T10:00:03;30.50;;;13.90;;
2494;SDS011;1258;48.336;14.322;2024-01-30T10:02:32;25.43;;;12.60;;
2494;SDS011;1258;48.336;14.322;2024-01-30T10:04:59;18.20;;;12.43;;
2494;SDS011;1258;48.336;14.322;2024-01-30T10:07:27;10.97;;;9.97;;
2494;SDS011;1258;48.336;14.322;2024-01-30T10:09:56;13.93;;;11.53;;
2494;SDS011;1258;48.336;14.322;2024-01-30T10:12:23;16.83;;;12.87;;
2494;SDS011;1258;48.336;14.322;2024-01-30T10:14:52;16.00;;;14.40;;
2494;SDS011;1258;48.336;14.322;2024-01-30T10:17:19;13.67;;;12.30;;
2494;SDS011;1258;48.336;14.322;2024-01-30T10:19:46;20.30;;;13.53;;
2494;SDS011;1258;48.336;14.322;2024-01-30T10:22:13;12.53;;;11.23;;
2494;SDS011;1258;48.336;14.322;2024-01-30T10:24:40;11.30;;;10.10;;
2494;SDS011;1258;48.336;14.322;2024-01-30T10:27:08;14.80;;;13.10;;
2494;SDS011;1258;48.336;14.322;2024-01-30T10:29:36;12.73;;;11.60;;
2494;SDS011;1258;48.336;14.322;2024-01-30T10:32:04;10.10;;;9.20;;
2494;SDS011;1258;48.336;14.322;2024-01-30T10:34:32;8.27;;;7.47;;
2494;SDS011;1258;48.336;14.322;2024-01-30T10:37:03;8.53;;;7.73;;
2494;SDS011;1258;48.336;14.322;2024-01-30T10:39:37;16.73;;;13.20;;
2494;SDS011;1258;48.336;14.322;2024-01-30T10:42:05;13.37;;;11.90;;
2494;SDS011;1258;48.336;14.322;2024-01-30T10:44:39;15.23;;;13.90;;
2494;SDS011;1258;48.336;14.322;2024-01-30T10:47:24;16.03;;;14.40;;
2494;SDS011;1258;48.336;14.322;2024-01-30T10:49:53;18.30;;;16.40;;
2494;SDS011;1258;48.336;14.322;2024-01-30T10:52:20;16.00;;;14.40;;
2494;SDS011;1258;48.336;14.322;2024-01-30T10:54:50;23.60;;;15.17;;
2494;SDS011;1258;48.336;14.322;2024-01-30T10:57:18;18.87;;;14.30;;
2494;SDS011;1258;48.336;14.322;2024-01-30T10:59:46;10.93;;;9.93;;
2494;SDS011;1258;48.336;14.322;2024-01-30T11:02:13;11.13;;;10.13;;
2494;SDS011;1258;48.336;14.322;2024-01-30T11:04:41;11.13;;;10.03;;
2494;SDS011;1258;48.336;14.322;2024-01-30T11:07:14;14.47;;;11.73;;
2494;SDS011;1258;48.336;14.322;2024-01-30T11:09:48;12.27;;;11.10;;
2494;SDS011;1258;48.336;14.322;2024-01-30T11:12:16;12.67;;;11.57;;
2494;SDS011;1258;48.336;14.322;2024-01-30T11:14:48;12.40;;;11.20;;
2494;SDS011;1258;48.336;14.322;2024-01-30T11:17:16;13.30;;;12.03;;
2494;SDS011;1258;48.336;14.322;2024-01-30T11:19:43;12.80;;;11.60;;
2494;SDS011;1258;48.336;14.322;2024-01-30T11:22:10;11.10;;;10.10;;
2494;SDS011;1258;48.336;14.322;2024-01-30T11:24:39;13.20;;;12.00;;
2494;SDS011;1258;48.336;14.322;2024-01-30T11:27:08;11.20;;;10.07;;
2494;SDS011;1258;48.336;14.322;2024-01-30T11:29:35;14.07;;;12.60;;
2494;SDS011;1258;48.336;14.322;2024-01-30T11:32:04;11.07;;;10.07;;
2494;SDS011;1258;48.336;14.322;2024-01-30T11:34:32;11.30;;;10.17;;
2494;SDS011;1258;48.336;14.322;2024-01-30T11:37:02;12.27;;;11.07;;
2494;SDS011;1258;48.336;14.322;2024-01-30T11:39:32;15.80;;;13.53;;
2494;SDS011;1258;48.336;14.322;2024-01-30T11:41:59;14.03;;;12.70;;
2494;SDS011;1258;48.336;14.322;2024-01-30T11:44:26;17.50;;;14.53;;
2494;SDS011;1258;48.336;14.322;2024-01-30T11:46:53;14.27;;;12.87;;
2494;SDS011;1258;48.336;14.322;2024-01-30T11:49:21;14.57;;;13.17;;
2494;SDS011;1258;48.336;14.322;2024-01-30T11:51:49;17.13;;;15.07;;
2494;SDS011;1258;48.336;14.322;2024-01-30T11:54:17;15.50;;;13.97;;
2494;SDS011;1258;48.336;14.322;2024-01-30T11:56:44;14.20;;;12.80;;
2494;SDS011;1258;48.336;14.322;2024-01-30T11:59:13;36.13;;;14.63;;
2494;SDS011;1258;48.336;14.322;2024-01-30T12:01:40;12.00;;;10.87;;
2494;SDS011;1258;48.336;14.322;2024-01-30T12:04:07;18.30;;;12.40;;
2494;SDS011;1258;48.336;14.322;2024-01-30T12:06:36;15.53;;;14.07;;
2494;SDS011;1258;48.336;14.322;2024-01-30T12:09:03;17.20;;;13.50;;
2494;SDS011;1258;48.336;14.322;2024-01-30T12:11:31;14.50;;;13.10;;
2494;SDS011;1258;48.336;14.322;2024-01-30T12:13:58;13.17;;;11.87;;
2494;SDS011;1258;48.336;14.322;2024-01-30T12:16:25;13.47;;;12.13;;
2494;SDS011;1258;48.336;14.322;2024-01-30T12:18:59;11.90;;;10.70;;
2494;SDS011;1258;48.336;14.322;2024-01-30T12:21:27;14.93;;;13.33;;
2494;SDS011;1258;48.336;14.322;2024-01-30T12:23:55;17.00;;;13.50;;
2494;SDS011;1258;48.336;14.322;2024-01-30T12:26:23;16.17;;;14.53;;
2494;SDS011;1258;48.336;14.322;2024-01-30T12:28:51;12.27;;;11.17;;
2494;SDS011;1258;48.336;14.322;2024-01-30T12:31:25;11.87;;;10.70;;
2494;SDS011;1258;48.336;14.322;2024-01-30T12:33:52;11.83;;;10.73;;
2494;SDS011;1258;48.336;14.322;2024-01-30T12:36:19;13.90;;;12.50;;
2494;SDS011;1258;48.336;14.322;2024-01-30T12:38:47;16.73;;;15.10;;
2494;SDS011;1258;48.336;14.322;2024-01-30T12:41:15;17.23;;;14.80;;
2494;SDS011;1258;48.336;14.322;2024-01-30T12:43:42;17.20;;;15.37;;
2494;SDS011;1258;48.336;14.322;2024-01-30T12:46:09;14.10;;;12.57;;
2494;SDS011;1258;48.336;14.322;2024-01-30T12:48:36;14.30;;;12.80;;
2494;SDS011;1258;48.336;14.322;2024-01-30T12:51:03;13.33;;;12.10;;
2494;SDS011;1258;48.336;14.322;2024-01-30T12:53:30;12.93;;;11.63;;
2494;SDS011;1258;48.336;14.322;2024-01-30T12:55:57;14.43;;;12.60;;
2494;SDS011;1258;48.336;14.322;2024-01-30T12:58:26;17.30;;;15.60;;
2494;SDS011;1258;48.336;14.322;2024-01-30T13:00:52;14.80;;;13.20;;
2494;SDS011;1258;48.336;14.322;2024-01-30T13:03:20;15.37;;;13.90;;
2494;SDS011;1258;48.336;14.322;2024-01-30T13:05:48;13.60;;;12.20;;
2494;SDS011;1258;48.336;14.322;2024-01-30T13:08:14;10.70;;;9.70;;
2494;SDS011;1258;48.336;14.322;2024-01-30T13:10:41;12.50;;;11.30;;
2494;SDS011;1258;48.336;14.322;2024-01-30T13:13:08;11.63;;;10.50;;
2494;SDS011;1258;48.336;14.322;2024-01-30T13:15:37;11.37;;;10.27;;
2494;SDS011;1258;48.336;14.322;2024-01-30T13:18:04;12.57;;;11.23;;
2494;SDS011;1258;48.336;14.322;2024-01-30T13:20:31;15.60;;;14.10;;
2494;SDS011;1258;48.336;14.322;2024-01-30T13:22:58;16.43;;;14.73;;
2494;SDS011;1258;48.336;14.322;2024-01-30T13:25:25;16.57;;;14.43;;
2494;SDS011;1258;48.336;14.322;2024-01-30T13:27:52;17.77;;;15.97;;
2494;SDS011;1258;48.336;14.322;2024-01-30T13:30:18;17.30;;;15.50;;
2494;SDS011;1258;48.336;14.322;2024-01-30T13:32:46;16.30;;;14.43;;
2494;SDS011;1258;48.336;14.322;2024-01-30T13:35:13;12.07;;;10.80;;
2494;SDS011;1258;48.336;14.322;2024-01-30T13:37:40;9.63;;;8.73;;
2494;SDS011;1258;48.336;14.322;2024-01-30T13:40:08;11.40;;;10.30;;
2494;SDS011;1258;48.336;14.322;2024-01-30T13:42:35;12.53;;;11.30;;
2494;SDS011;1258;48.336;14.322;2024-01-30T13:45:02;11.17;;;10.07;;
2494;SDS011;1258;48.336;14.322;2024-01-30T13:47:29;27.50;;;13.03;;
2494;SDS011;1258;48.336;14.322;2024-01-30T13:49:58;16.17;;;14.47;;
2494;SDS011;1258;48.336;14.322;2024-01-30T13:52:25;12.70;;;11.37;;
2494;SDS011;1258;48.336;14.322;2024-01-30T13:54:52;12.87;;;11.67;;
2494;SDS011;1258;48.336;14.322;2024-01-30T13:57:19;9.70;;;8.80;;
2494;SDS011;1258;48.336;14.322;2024-01-30T13:59:46;9.43;;;8.53;;
2494;SDS011;1258;48.336;14.322;2024-01-30T14:02:13;8.20;;;7.40;;
2494;SDS011;1258;48.336;14.322;2024-01-30T14:04:39;9.17;;;8.23;;
2494;SDS011;1258;48.336;14.322;2024-01-30T14:07:08;10.83;;;9.73;;
2494;SDS011;1258;48.336;14.322;2024-01-30T14:09:35;9.37;;;8.47;;
2494;SDS011;1258;48.336;14.322;2024-01-30T14:12:01;12.20;;;11.00;;
2494;SDS011;1258;48.336;14.322;2024-01-30T14:14:29;11.63;;;10.50;;
2494;SDS011;1258;48.336;14.322;2024-01-30T14:16:56;20.10;;;12.93;;
2494;SDS011;1258;48.336;14.322;2024-01-30T14:19:22;20.83;;;15.20;;
2494;SDS011;1258;48.336;14.322;2024-01-30T14:21:49;15.33;;;13.53;;
2494;SDS011;1258;48.336;14.322;2024-01-30T14:24:18;12.53;;;11.33;;
2494;SDS011;1258;48.336;14.322;2024-01-30T14:26:44;10.43;;;9.43;;
2494;SDS011;1258;48.336;14.322;2024-01-30T14:29:12;12.87;;;11.57;;
2494;SDS011;1258;48.336;14.322;2024-01-30T14:31:38;14.33;;;12.90;;
2494;SDS011;1258;48.336;14.322;2024-01-30T14:34:05;15.77;;;13.10;;
2494;SDS011;1258;48.336;14.322;2024-01-30T14:36:33;13.47;;;12.07;;
2494;SDS011;1258;48.336;14.322;2024-01-30T14:39:00;14.00;;;12.60;;
2494;SDS011;1258;48.336;14.322;2024-01-30T14:41:29;14.13;;;12.73;;
2494;SDS011;1258;48.336;14.322;2024-01-30T14:43:56;17.23;;;15.50;;
2494;SDS011;1258;48.336;14.322;2024-01-30T14:46:23;14.30;;;12.80;;
2494;SDS011;1258;48.336;14.322;2024-01-30T14:48:51;18.20;;;15.33;;
2494;SDS011;1258;48.336;14.322;2024-01-30T14:51:19;17.73;;;15.97;;
2494;SDS011;1258;48.336;14.322;2024-01-30T14:53:46;17.70;;;15.80;;
2494;SDS011;1258;48.336;14.322;2024-01-30T14:56:13;16.70;;;15.10;;
2494;SDS011;1258;48.336;14.322;2024-01-30T14:58:41;20.97;;;17.50;;
2494;SDS011;1258;48.336;14.322;2024-01-30T15:01:09;15.30;;;13.83;;
2494;SDS011;1258;48.336;14.322;2024-01-30T15:03:36;18.07;;;16.27;;
2494;SDS011;1258;48.336;14.322;2024-01-30T15:06:05;18.63;;;15.47;;
2494;SDS011;1258;48.336;14.322;2024-01-30T15:08:32;16.50;;;14.80;;